createdAt,value
2022-08-02T00:00:57.139Z,4.22
2022-08-02T00:05:59.650Z,7.30
2022-08-02T00:11:02.260Z,4.70
2022-08-02T00:16:05.336Z,3.42
2022-08-02T00:21:08.017Z,7.97
2022-08-02T00:26:10.507Z,8.18
2022-08-02T00:31:13.171Z,4.30
2022-08-02T00:36:16.243Z,4.40
2022-08-02T00:41:21.004Z,4.20
2022-08-02T00:46:23.570Z,5.60
2022-08-02T00:51:26.171Z,5.72
2022-08-02T00:56:28.672Z,5.65
2022-08-02T01:01:56.141Z,4.72
2022-08-02T01:07:12.007Z,5.03
2022-08-02T01:12:16.089Z,6.78
2022-08-02T01:17:30.378Z,5.47
2022-08-02T01:23:00.993Z,6.55
2022-08-02T01:28:26.055Z,3.92
2022-08-02T01:33:36.575Z,5.00
2022-08-02T01:38:50.917Z,4.55
2022-08-02T01:43:56.863Z,4.97
2022-08-02T01:49:00.686Z,6.10
2022-08-02T01:54:03.514Z,5.35
2022-08-02T01:59:06.406Z,3.83
2022-08-02T02:04:09.482Z,6.65
2022-08-02T02:09:13.428Z,4.85
2022-08-02T02:14:17.040Z,3.33
2022-08-02T02:19:22.690Z,5.57
2022-08-02T02:24:25.201Z,2.95
2022-08-02T02:29:29.512Z,3.67
2022-08-02T02:34:38.485Z,3.13
2022-08-02T02:39:42.368Z,7.35
2022-08-02T02:44:47.577Z,3.42
2022-08-02T02:49:51.511Z,4.68
2022-08-02T02:54:54.702Z,4.05
2022-08-02T02:59:57.255Z,3.90
2022-08-02T03:05:02.965Z,4.47
2022-08-02T03:10:06.998Z,8.93
2022-08-02T03:15:13.864Z,4.03
2022-08-02T03:20:20.236Z,3.23
2022-08-02T03:25:22.682Z,4.95
2022-08-02T03:30:27.816Z,5.32
2022-08-02T03:35:30.505Z,4.75
2022-08-02T03:40:33.341Z,2.88
2022-08-02T03:45:37.139Z,3.28
2022-08-02T03:50:40.317Z,3.42
2022-08-02T03:55:42.941Z,4.18
2022-08-02T04:00:45.632Z,2.88
2022-08-02T04:06:03.379Z,4.88
2022-08-02T04:11:26.105Z,3.58
2022-08-02T04:16:49.243Z,5.68
2022-08-02T04:21:52.658Z,4.13
2022-08-02T04:27:03.420Z,4.57
2022-08-02T04:32:22.883Z,5.60
2022-08-02T04:37:26.524Z,5.53
2022-08-02T04:42:29.945Z,4.57
2022-08-02T04:48:02.391Z,4.63
2022-08-02T04:52:54.829Z,3.88
2022-08-02T04:57:58.330Z,3.70
2022-08-02T05:03:01.457Z,3.95
2022-08-02T05:08:04.235Z,3.90
2022-08-02T05:13:07.070Z,3.40
2022-08-02T05:18:09.679Z,3.35
2022-08-02T05:23:12.368Z,4.82
2022-08-02T05:28:14.903Z,3.95
2022-08-02T05:33:17.396Z,3.38
2022-08-02T05:38:19.861Z,3.83
2022-08-02T05:43:28.419Z,4.75
2022-08-02T05:48:32.250Z,7.95
2022-08-02T05:53:47.697Z,3.72
2022-08-02T05:59:24.307Z,4.65
2022-08-02T06:04:33.331Z,2.63
2022-08-02T06:09:36.201Z,3.72
2022-08-02T06:14:38.577Z,5.18
2022-08-02T06:19:51.947Z,5.97
2022-08-02T06:24:56.828Z,5.25
2022-08-02T06:29:59.563Z,5.82
2022-08-02T06:35:05.742Z,3.95
2022-08-02T06:40:28.117Z,5.47
2022-08-02T06:45:30.490Z,8.50
2022-08-02T06:50:33.377Z,4.93
2022-08-02T06:55:43.638Z,4.90
2022-08-02T07:00:47.369Z,4.18
2022-08-02T07:05:49.746Z,3.53
2022-08-02T07:10:52.424Z,4.35
2022-08-02T07:15:55.917Z,3.42
2022-08-02T07:20:58.391Z,2.60
2022-08-02T07:26:03.269Z,2.78
2022-08-02T07:31:07.046Z,3.17
2022-08-02T07:36:17.037Z,2.38
2022-08-02T07:41:25.043Z,3.03
2022-08-02T07:46:27.825Z,5.20
2022-08-02T07:51:33.225Z,3.80
2022-08-02T07:56:35.725Z,3.28
2022-08-02T08:01:38.238Z,6.53
2022-08-02T08:06:49.756Z,7.97
2022-08-02T08:11:52.206Z,3.88
2022-08-02T08:16:54.551Z,4.45
2022-08-02T08:21:56.957Z,2.92
2022-08-02T08:26:59.407Z,3.33
2022-08-02T08:32:01.882Z,6.20
2022-08-02T08:37:04.449Z,3.22
2022-08-02T08:42:08.870Z,8.88
2022-08-02T08:47:12.005Z,4.30
2022-08-02T08:52:15.194Z,4.40
2022-08-02T08:57:19.431Z,4.28
2022-08-02T09:02:26.014Z,3.05
2022-08-02T09:07:30.460Z,4.95
2022-08-02T09:12:32.990Z,3.25
2022-08-02T09:17:35.410Z,4.18
2022-08-02T09:22:38.107Z,4.50
2022-08-02T09:27:40.558Z,6.78
2022-08-02T09:32:48.253Z,6.53
2022-08-02T09:37:50.827Z,2.13
2022-08-02T09:42:59.697Z,9.68
2022-08-02T09:48:11.318Z,4.18
2022-08-02T09:53:14.362Z,2.08
2022-08-02T09:58:21.090Z,2.60
2022-08-02T10:03:25.969Z,1.83
2022-08-02T10:08:37.388Z,4.40
2022-08-02T10:13:39.875Z,5.18
2022-08-02T10:18:42.204Z,3.10
2022-08-02T10:23:46.388Z,3.00
2022-08-02T10:28:50.176Z,6.07
2022-08-02T10:33:53.610Z,2.72
2022-08-02T10:38:58.816Z,4.68
2022-08-02T10:44:01.689Z,3.58
2022-08-02T10:49:38.180Z,2.35
2022-08-02T10:54:41.731Z,2.15
2022-08-02T10:59:45.124Z,3.70
2022-08-02T11:04:47.624Z,13.15
2022-08-02T11:09:51.313Z,3.60
2022-08-02T11:15:04.020Z,3.42
2022-08-02T11:20:13.150Z,10.50
2022-08-02T11:25:24.517Z,9.93
2022-08-02T11:30:27.938Z,1.80
2022-08-02T11:35:41.053Z,1.52
2022-08-02T11:40:44.144Z,3.10
2022-08-02T11:45:46.863Z,5.50
2022-08-02T11:50:49.498Z,1.42
2022-08-02T11:55:57.709Z,2.78
2022-08-02T12:01:00.742Z,1.42
2022-08-02T12:06:06.863Z,4.15
2022-08-02T12:11:13.434Z,2.78
2022-08-02T12:16:34.700Z,3.85
2022-08-02T12:21:37.097Z,4.07
2022-08-02T12:26:46.598Z,3.75
2022-08-02T12:31:56.524Z,3.60
2022-08-02T12:37:08.763Z,1.38
2022-08-02T12:42:15.720Z,1.40
2022-08-02T12:47:18.440Z,3.83
2022-08-02T12:52:24.953Z,2.20
2022-08-02T12:57:27.454Z,2.55
2022-08-02T13:02:31.397Z,2.63
2022-08-02T13:07:33.833Z,1.92
2022-08-02T13:12:37.544Z,4.63
2022-08-02T13:17:40.287Z,1.70
2022-08-02T13:22:52.906Z,2.45
2022-08-02T13:27:56.150Z,5.25
2022-08-02T13:33:01.129Z,5.07
2022-08-02T13:38:04.668Z,1.38
2022-08-02T13:43:07.186Z,2.38
2022-08-02T13:48:16.626Z,4.05
2022-08-02T13:53:20.928Z,3.50
2022-08-02T13:58:23.471Z,2.33
2022-08-02T14:03:26.498Z,5.40
2022-08-02T14:08:49.612Z,4.35
2022-08-02T14:13:52.031Z,1.60
2022-08-02T14:18:54.409Z,2.53
2022-08-02T14:23:56.894Z,2.50
2022-08-02T14:28:59.329Z,4.78
2022-08-02T14:34:01.914Z,1.88
2022-08-02T14:39:04.537Z,3.88
2022-08-02T14:44:09.771Z,4.30
2022-08-02T14:49:14.119Z,2.72
2022-08-02T14:54:17.314Z,3.90
2022-08-02T14:59:20.773Z,5.88
2022-08-02T15:04:23.386Z,2.05
2022-08-02T15:09:26.344Z,2.15
2022-08-02T15:14:28.767Z,2.08
2022-08-02T15:19:56.079Z,2.40
2022-08-02T15:24:54.284Z,2.97
2022-08-02T15:30:00.880Z,5.00
2022-08-02T15:35:03.561Z,2.22
2022-08-02T15:40:06.670Z,1.15
2022-08-02T15:45:13.210Z,2.05
2022-08-02T15:50:18.813Z,1.40
2022-08-02T15:55:21.358Z,2.05
2022-08-02T16:00:23.767Z,3.03
2022-08-02T16:05:26.354Z,2.78
2022-08-02T16:10:29.003Z,5.20
2022-08-02T16:15:31.459Z,1.55
2022-08-02T16:20:33.886Z,3.47
2022-08-02T16:25:41.541Z,1.30
2022-08-02T16:30:54.336Z,3.33
2022-08-02T16:36:06.954Z,2.67
2022-08-02T16:41:10.458Z,3.25
2022-08-02T16:46:13.034Z,3.85
2022-08-02T16:51:15.638Z,1.35
2022-08-02T16:56:18.149Z,6.65
2022-08-02T17:01:27.451Z,4.50
2022-08-02T17:06:30.487Z,4.40
2022-08-02T17:11:33.124Z,4.28
2022-08-02T17:16:35.635Z,2.55
2022-08-02T17:21:38.808Z,4.70
2022-08-02T17:26:41.200Z,3.53
2022-08-02T17:32:02.371Z,4.50
2022-08-02T17:37:08.996Z,2.05
2022-08-02T17:42:11.663Z,3.63
2022-08-02T17:47:22.824Z,5.43
2022-08-02T17:52:51.281Z,2.67
2022-08-02T17:57:58.692Z,5.78
2022-08-02T18:03:05.991Z,3.95
2022-08-02T18:08:10.225Z,5.20
2022-08-02T18:13:16.557Z,12.88
2022-08-02T18:18:30.020Z,15.20
2022-08-02T18:23:32.773Z,10.73
2022-08-02T18:28:40.553Z,4.75
2022-08-02T18:33:57.556Z,17.67
2022-08-02T18:39:08.231Z,22.30
2022-08-02T18:44:11.490Z,15.73
2022-08-02T18:49:18.464Z,13.07
2022-08-02T18:54:30.641Z,10.25
2022-08-02T18:59:43.375Z,7.82
2022-08-02T19:04:54.352Z,13.65
2022-08-02T19:09:58.538Z,17.92
2022-08-02T19:15:01.969Z,17.30
2022-08-02T19:20:05.932Z,15.30
2022-08-02T19:25:09.149Z,8.30
2022-08-02T19:30:17.259Z,7.07
2022-08-02T19:40:42.402Z,11.23
2022-08-02T19:45:49.999Z,12.38
2022-08-02T19:51:00.797Z,12.80
2022-08-02T19:56:04.424Z,9.88
2022-08-02T20:01:07.771Z,18.77
2022-08-02T20:06:19.427Z,15.95
2022-08-02T20:11:24.558Z,8.30
2022-08-02T20:16:32.674Z,10.55
2022-08-02T20:21:37.842Z,8.80
2022-08-02T20:26:47.516Z,9.63
2022-08-02T20:31:50.737Z,12.15
2022-08-02T20:36:54.162Z,7.88
2022-08-02T20:41:58.997Z,13.23
2022-08-02T20:47:03.209Z,9.70
2022-08-02T20:52:24.117Z,11.30
2022-08-02T20:57:49.081Z,6.32
2022-08-02T21:02:50.581Z,7.47
2022-08-02T21:07:55.026Z,6.05
2022-08-02T21:12:57.531Z,9.90
2022-08-02T21:18:05.738Z,10.15
2022-08-02T21:23:19.887Z,8.00
2022-08-02T21:28:22.867Z,13.80
2022-08-02T21:33:25.635Z,8.15
2022-08-02T21:38:35.415Z,4.65
2022-08-02T21:43:43.937Z,9.48
2022-08-02T21:48:47.005Z,9.05
2022-08-02T21:54:18.474Z,7.38
2022-08-02T21:59:15.887Z,9.68
2022-08-02T22:04:19.422Z,7.70
2022-08-02T22:09:43.201Z,9.60
2022-08-02T22:14:53.766Z,13.05
2022-08-02T22:19:58.290Z,10.13
2022-08-02T22:25:01.227Z,15.05
2022-08-02T22:30:08.213Z,11.88
2022-08-02T22:35:12.391Z,10.63
2022-08-02T22:40:14.847Z,17.63
2022-08-02T22:45:18.210Z,12.85
2022-08-02T22:50:21.409Z,15.45
2022-08-02T22:55:24.533Z,29.05
2022-08-02T22:58:52.547Z,9.02
2022-08-02T23:00:35.028Z,15.10
2022-08-02T23:05:39.260Z,14.43
2022-08-02T23:10:43.101Z,12.30
2022-08-02T23:16:05.221Z,12.15
2022-08-02T23:21:07.959Z,12.57
2022-08-02T23:26:10.570Z,13.18
2022-08-02T23:31:30.104Z,11.52
2022-08-02T23:36:33.238Z,8.65
2022-08-02T23:41:36.614Z,10.80
2022-08-02T23:46:47.042Z,9.80
2022-08-02T23:51:51.372Z,9.38
2022-08-02T23:56:54.247Z,11.20
